aviador You're here:

KWVL Decoded Metar

WATERVILLE in ME, USA
Report Time2017-08-18 09:56:00
UTC Time2017-08-18 10:47:59
Flight Rules vfr VFR
WindCalm
Visibility9999 m
Phenomena:N/A
Clouds:N/A
Expected CloudBase > 400 ft AGL from Temp-Dew spread
CeilingNone
Temp13°C (ISA -1)
Dew Point12°C (94% RH)
QNH1015 hPa
Density Alt292 ft
Elevation331 ft
Report Wrong Elevation
Raw Report
METAR KWVL 180956Z AUTO 00000KT 10SM CLR 13/12 A2997 RMK AO2 SLP173
T01280122=

Extra information for KWVL:More info

Metar Taf Metar & Taf Last 4 Metars F.Rules Stats Wind Profile Meteogram Temp Stats Airport Information Weather charts Add Link Nearby VenuesMetar ALERT Operation Metar Decoded Social comments

AIRNAV info for KWVL